createdAt,value
2017-11-06T00:02:16.327Z,100866.95
2017-11-06T00:04:44.695Z,100871.09
2017-11-06T00:07:13.068Z,100867.59
2017-11-06T00:09:41.454Z,100870.33
2017-11-06T00:12:09.832Z,100871.72
2017-11-06T00:14:38.206Z,100869.02
2017-11-06T00:17:06.572Z,100876.66
2017-11-06T00:19:34.939Z,100884.83
2017-11-06T00:22:03.331Z,100897.36
2017-11-06T00:24:31.699Z,100901.40
2017-11-06T00:27:00.217Z,100902.31
2017-11-06T00:29:28.602Z,100914.04
2017-11-06T00:31:56.989Z,100915.53
2017-11-06T00:34:25.359Z,100908.02
2017-11-06T00:36:53.734Z,100908.06
2017-11-06T00:39:22.111Z,100917.97
2017-11-06T00:41:50.494Z,100922.92
2017-11-06T00:44:18.891Z,100926.14
2017-11-06T00:46:47.292Z,100926.72
2017-11-06T00:49:16.435Z,100921.95
2017-11-06T00:51:44.832Z,100923.05
2017-11-06T00:54:13.205Z,100925.83
2017-11-06T00:56:41.588Z,100924.09
2017-11-06T00:59:09.968Z,100933.99
2017-11-06T01:01:38.359Z,100939.05
2017-11-06T01:04:06.733Z,100940.91
2017-11-06T01:06:35.104Z,100946.86
2017-11-06T01:09:03.480Z,100946.00
2017-11-06T01:11:31.862Z,100941.58
2017-11-06T01:14:00.239Z,100937.59
2017-11-06T01:16:28.618Z,100932.20
2017-11-06T01:18:56.990Z,100937.23
2017-11-06T01:21:25.370Z,100938.24
2017-11-06T01:23:53.748Z,100938.42
2017-11-06T01:26:22.121Z,100936.39
2017-11-06T01:28:50.488Z,100940.52
2017-11-06T01:31:18.854Z,100949.45
2017-11-06T01:33:48.009Z,100952.72
2017-11-06T01:36:17.157Z,100958.62
2017-11-06T01:38:45.527Z,100958.23
2017-11-06T01:41:14.672Z,100963.22
2017-11-06T01:43:43.043Z,100970.33
2017-11-06T01:46:11.410Z,100973.46
2017-11-06T01:48:39.785Z,100973.51
2017-11-06T01:51:08.160Z,100972.13
2017-11-06T01:53:36.530Z,100973.07
2017-11-06T01:56:05.764Z,100976.72
2017-11-06T01:58:34.134Z,100978.16
2017-11-06T02:01:02.507Z,100985.00
2017-11-06T02:03:30.877Z,100985.05
2017-11-06T02:05:59.247Z,100986.95
2017-11-06T02:08:27.624Z,101000.02
2017-11-06T02:10:56.003Z,100996.11
2017-11-06T02:13:24.370Z,100992.17
2017-11-06T02:15:53.516Z,100996.28
2017-11-06T02:18:21.910Z,100997.25
2017-11-06T02:20:50.287Z,100998.71
2017-11-06T02:23:18.654Z,101002.35
2017-11-06T02:25:47.027Z,100999.72
2017-11-06T02:28:15.404Z,101002.01
2017-11-06T02:30:45.594Z,101006.09
2017-11-06T02:33:13.967Z,101007.13
2017-11-06T02:35:43.176Z,101012.59
2017-11-06T02:38:11.551Z,101020.61
2017-11-06T02:40:39.929Z,101032.27
2017-11-06T02:43:08.304Z,101040.73
2017-11-06T02:45:37.441Z,101043.95
2017-11-06T02:48:05.820Z,101042.20
2017-11-06T02:50:34.211Z,101042.25
2017-11-06T02:53:02.592Z,101053.99
2017-11-06T02:55:30.966Z,101052.70
2017-11-06T02:57:59.341Z,101063.48
2017-11-06T03:00:27.718Z,101066.66
2017-11-06T03:02:56.095Z,101066.26
2017-11-06T03:05:24.479Z,101062.14
2017-11-06T03:07:52.855Z,101068.79
2017-11-06T03:10:21.230Z,101062.06
2017-11-06T03:12:49.614Z,101058.07
2017-11-06T03:15:17.994Z,101060.84
2017-11-06T03:17:46.369Z,101066.69
2017-11-06T03:20:14.729Z,101077.80
2017-11-06T03:22:43.103Z,101088.51
2017-11-06T03:25:11.488Z,101098.67
2017-11-06T03:27:39.849Z,101113.85
2017-11-06T03:30:08.228Z,101113.86
2017-11-06T03:32:36.613Z,101117.02
2017-11-06T03:35:05.005Z,101112.63
2017-11-06T03:37:33.368Z,101112.98
2017-11-06T03:40:01.800Z,101115.72
2017-11-06T03:42:30.168Z,101123.34
2017-11-06T03:44:58.549Z,101129.23
2017-11-06T03:47:26.926Z,101133.75
2017-11-06T03:49:55.298Z,101130.19
2017-11-06T03:52:23.668Z,101133.31
2017-11-06T03:54:52.040Z,101136.95
2017-11-06T03:57:20.410Z,101147.35
2017-11-06T03:59:48.783Z,101148.34
2017-11-06T04:02:17.154Z,101153.28
2017-11-06T04:04:45.530Z,101155.02
2017-11-06T04:07:14.668Z,101149.29
2017-11-06T04:09:43.046Z,101161.42
2017-11-06T04:12:11.423Z,101156.61
2017-11-06T04:14:39.809Z,101166.48
2017-11-06T04:17:08.188Z,101176.41
2017-11-06T04:19:36.560Z,101187.67
2017-11-06T04:22:04.951Z,101183.56
2017-11-06T04:24:33.324Z,101198.83
2017-11-06T04:27:01.716Z,101194.36
2017-11-06T04:29:30.079Z,101198.94
2017-11-06T04:31:58.455Z,101205.66
2017-11-06T04:34:26.831Z,101206.17
2017-11-06T04:36:55.196Z,101204.39
2017-11-06T04:39:23.588Z,101200.05
2017-11-06T04:41:51.972Z,101202.45
2017-11-06T04:44:20.349Z,101207.47
2017-11-06T04:46:48.724Z,101217.82
2017-11-06T04:49:17.094Z,101215.61
2017-11-06T04:51:45.464Z,101224.69
2017-11-06T04:54:13.828Z,101223.50
2017-11-06T04:56:42.970Z,101232.98
2017-11-06T04:59:11.351Z,101228.15
2017-11-06T05:01:39.735Z,101232.22
2017-11-06T05:04:08.110Z,101235.41
2017-11-06T05:06:36.555Z,101234.11
2017-11-06T05:09:04.923Z,101232.80
2017-11-06T05:11:34.067Z,101241.81
2017-11-06T05:14:02.441Z,101243.63
2017-11-06T05:16:30.814Z,101246.82
2017-11-06T05:18:59.189Z,101252.63
2017-11-06T05:21:27.570Z,101258.11
2017-11-06T05:23:55.939Z,101266.65
2017-11-06T05:26:24.315Z,101260.98
2017-11-06T05:28:52.696Z,101260.66
2017-11-06T05:31:21.075Z,101271.51
2017-11-06T05:33:49.488Z,101272.09
2017-11-06T05:36:17.869Z,101277.56
2017-11-06T05:38:46.242Z,101276.77
2017-11-06T05:41:14.617Z,101279.56
2017-11-06T05:43:42.999Z,101282.31
2017-11-06T05:46:11.363Z,101292.19
2017-11-06T05:48:39.736Z,101300.24
2017-11-06T05:51:08.107Z,101305.65
2017-11-06T05:53:36.468Z,101310.14
2017-11-06T05:56:05.613Z,101321.83
2017-11-06T05:58:33.988Z,101322.80
2017-11-06T06:01:02.370Z,101322.91
2017-11-06T06:03:30.746Z,101332.00
2017-11-06T06:05:59.141Z,101339.76
2017-11-06T06:08:27.517Z,101337.24
2017-11-06T06:10:55.891Z,101334.63
2017-11-06T06:13:24.265Z,101336.91
2017-11-06T06:15:52.635Z,101339.72
2017-11-06T06:18:21.008Z,101342.94
2017-11-06T06:20:49.385Z,101353.88
2017-11-06T06:23:17.751Z,101353.13
2017-11-06T06:25:46.121Z,101355.95
2017-11-06T06:28:14.496Z,101364.09
2017-11-06T06:30:43.628Z,101375.83
2017-11-06T06:33:11.997Z,101374.08
2017-11-06T06:35:40.362Z,101370.53
2017-11-06T06:38:08.736Z,101379.88
2017-11-06T06:40:37.116Z,101391.40
2017-11-06T06:43:05.491Z,101396.27
2017-11-06T06:45:34.649Z,101403.72
2017-11-06T06:48:03.016Z,101401.84
2017-11-06T06:50:31.408Z,101408.02
2017-11-06T06:52:59.784Z,101411.14
2017-11-06T06:55:28.160Z,101412.92
2017-11-06T06:57:56.524Z,101421.38
2017-11-06T07:00:24.903Z,101426.25
2017-11-06T07:02:53.275Z,101431.58
2017-11-06T07:05:21.734Z,101442.30
2017-11-06T07:07:50.128Z,101438.27
2017-11-06T07:10:18.506Z,101443.07
2017-11-06T07:12:46.888Z,101443.95
2017-11-06T07:15:15.260Z,101452.80
2017-11-06T07:17:43.630Z,101466.11
2017-11-06T07:20:12.009Z,101469.66
2017-11-06T07:22:40.378Z,101466.85
2017-11-06T07:25:09.525Z,101477.44
2017-11-06T07:27:37.902Z,101476.34
2017-11-06T07:30:06.283Z,101477.11
2017-11-06T07:32:34.670Z,101478.70
2017-11-06T07:35:03.048Z,101487.94
2017-11-06T07:37:31.421Z,101485.56
2017-11-06T07:39:59.805Z,101489.42
2017-11-06T07:42:28.196Z,101495.01
2017-11-06T07:44:58.077Z,101502.70
2017-11-06T07:47:26.457Z,101505.97
2017-11-06T07:49:54.836Z,101512.28
2017-11-06T07:52:23.212Z,101514.97
2017-11-06T07:54:51.620Z,101517.36
2017-11-06T07:57:20.021Z,101523.31
2017-11-06T07:59:49.186Z,101533.60
2017-11-06T08:02:17.593Z,101536.77
2017-11-06T08:04:46.746Z,101539.97
2017-11-06T08:07:15.123Z,101539.56
2017-11-06T08:09:43.487Z,101541.82
2017-11-06T08:12:11.863Z,101547.50
2017-11-06T08:14:40.243Z,101542.26
2017-11-06T08:17:09.149Z,101548.07
2017-11-06T08:19:38.042Z,101557.05
2017-11-06T08:22:06.436Z,101561.77
2017-11-06T08:24:34.836Z,101565.14
2017-11-06T08:27:03.219Z,101569.47
2017-11-06T08:29:31.637Z,101574.88
2017-11-06T08:32:00.011Z,101574.02
2017-11-06T08:34:29.153Z,101569.70
2017-11-06T08:36:57.531Z,101585.77
2017-11-06T08:39:25.902Z,101582.97
2017-11-06T08:41:54.284Z,101589.86
2017-11-06T08:44:22.662Z,101590.11
2017-11-06T08:46:51.042Z,101597.27
2017-11-06T08:49:19.453Z,101596.00
2017-11-06T08:51:47.862Z,101596.58
2017-11-06T08:54:17.041Z,101611.61
2017-11-06T08:56:45.432Z,101620.37
2017-11-06T08:59:14.576Z,101622.39
2017-11-06T09:01:42.983Z,101623.04
2017-11-06T09:04:11.481Z,101628.84
2017-11-06T09:06:40.631Z,101635.11
2017-11-06T09:09:09.014Z,101632.89
2017-11-06T09:11:37.391Z,101629.48
2017-11-06T09:14:05.807Z,101631.14
2017-11-06T09:16:34.960Z,101645.83
2017-11-06T09:19:03.334Z,101646.58
2017-11-06T09:21:31.738Z,101652.20
2017-11-06T09:24:00.134Z,101657.12
2017-11-06T09:26:28.538Z,101658.19
2017-11-06T09:28:57.008Z,101661.34
2017-11-06T09:31:25.406Z,101664.23
2017-11-06T09:33:54.548Z,101661.39
2017-11-06T09:36:22.929Z,101662.65
2017-11-06T09:38:51.311Z,101661.34
2017-11-06T09:41:19.692Z,101662.63
2017-11-06T09:43:48.139Z,101666.20
2017-11-06T09:46:16.510Z,101662.62
2017-11-06T09:48:45.652Z,101669.34
2017-11-06T09:51:14.028Z,101667.64
2017-11-06T09:53:42.399Z,101671.83
2017-11-06T09:56:10.773Z,101667.66
2017-11-06T09:58:39.171Z,101668.97
2017-11-06T10:01:07.543Z,101675.55
2017-11-06T10:03:35.916Z,101680.03
2017-11-06T10:06:04.285Z,101675.11
2017-11-06T10:08:32.666Z,101687.03
2017-11-06T10:11:01.050Z,101680.28
2017-11-06T10:13:29.437Z,101696.43
2017-11-06T10:15:57.815Z,101707.31
2017-11-06T10:18:26.188Z,101699.62
2017-11-06T10:20:54.559Z,101697.23
2017-11-06T10:23:22.930Z,101696.09
2017-11-06T10:25:51.302Z,101699.30
2017-11-06T10:28:19.684Z,101695.23
2017-11-06T10:30:48.059Z,101689.94
2017-11-06T10:33:16.434Z,101681.91
2017-11-06T10:35:44.805Z,101673.13
2017-11-06T10:38:13.946Z,101674.73
2017-11-06T10:40:42.318Z,101676.48
2017-11-06T10:43:10.705Z,101685.09
2017-11-06T10:45:39.082Z,101681.89
2017-11-06T10:48:07.459Z,101684.82
2017-11-06T10:50:35.839Z,101680.29
2017-11-06T10:53:04.211Z,101680.20
2017-11-06T10:55:32.580Z,101684.25
2017-11-06T10:58:00.945Z,101689.27
2017-11-06T11:00:29.355Z,101691.57
2017-11-06T11:02:57.753Z,101690.18
2017-11-06T11:05:26.137Z,101696.62
2017-11-06T11:07:54.516Z,101688.61
2017-11-06T11:10:22.902Z,101692.70
2017-11-06T11:12:52.047Z,101693.30
2017-11-06T11:15:20.414Z,101694.42
2017-11-06T11:17:49.628Z,101695.39
2017-11-06T11:20:18.003Z,101702.13
2017-11-06T11:22:46.381Z,101708.72
2017-11-06T11:25:14.973Z,101703.71
2017-11-06T11:27:43.350Z,101714.34
2017-11-06T11:30:11.723Z,101717.48
2017-11-06T11:32:40.093Z,101726.34
2017-11-06T11:35:09.230Z,101733.75
2017-11-06T11:37:37.611Z,101729.56
2017-11-06T11:40:05.985Z,101731.40
2017-11-06T11:42:34.361Z,101730.20
2017-11-06T11:45:02.730Z,101737.92
2017-11-06T11:47:31.112Z,101731.13
2017-11-06T11:49:59.514Z,101727.51
2017-11-06T11:52:27.888Z,101730.61
2017-11-06T11:54:56.265Z,101730.38
2017-11-06T11:57:24.636Z,101740.16
2017-11-06T11:59:53.011Z,101736.41
2017-11-06T12:02:21.386Z,101731.17
2017-11-06T12:04:49.757Z,101734.34
2017-11-06T12:07:18.131Z,101735.94
2017-11-06T12:09:46.508Z,101734.05
2017-11-06T12:12:14.880Z,101738.97
2017-11-06T12:14:43.261Z,101731.34
2017-11-06T12:17:11.640Z,101744.09
2017-11-06T12:19:40.012Z,101745.08
2017-11-06T12:22:09.155Z,101751.52
2017-11-06T12:24:37.530Z,101750.28
2017-11-06T12:27:05.899Z,101753.50
2017-11-06T12:29:34.274Z,101763.34
2017-11-06T12:32:02.703Z,101763.19
2017-11-06T12:34:31.079Z,101772.98
2017-11-06T12:36:59.447Z,101774.70
2017-11-06T12:39:27.819Z,101775.13
2017-11-06T12:41:56.198Z,101766.23
2017-11-06T12:44:24.563Z,101772.98
2017-11-06T12:46:52.935Z,101775.09
2017-11-06T12:49:21.313Z,101771.48
2017-11-06T12:51:49.695Z,101768.27
2017-11-06T12:54:18.066Z,101770.05
2017-11-06T12:56:46.466Z,101765.56
2017-11-06T12:59:14.844Z,101772.63
2017-11-06T13:01:43.220Z,101775.84
2017-11-06T13:04:11.604Z,101778.19
2017-11-06T13:06:39.979Z,101780.05
2017-11-06T13:09:08.346Z,101779.66
2017-11-06T13:11:36.712Z,101780.17
2017-11-06T13:14:05.189Z,101780.53
2017-11-06T13:16:33.560Z,101781.28
2017-11-06T13:19:01.924Z,101783.39
2017-11-06T13:21:31.079Z,101792.23
2017-11-06T13:23:59.458Z,101793.23
2017-11-06T13:26:27.834Z,101791.44
2017-11-06T13:28:56.211Z,101797.36
2017-11-06T13:31:24.588Z,101797.23
2017-11-06T13:33:52.961Z,101800.97
2017-11-06T13:36:21.338Z,101805.58
2017-11-06T13:38:49.698Z,101806.97
2017-11-06T13:41:18.067Z,101811.89
2017-11-06T13:43:47.213Z,101814.23
2017-11-06T13:46:15.587Z,101814.30
2017-11-06T13:48:43.949Z,101824.27
2017-11-06T13:51:12.314Z,101824.42
2017-11-06T13:53:40.682Z,101828.55
2017-11-06T13:56:09.050Z,101826.91
2017-11-06T13:58:38.183Z,101839.45
2017-11-06T14:01:06.570Z,101847.48
2017-11-06T14:03:34.948Z,101850.42
2017-11-06T14:06:03.324Z,101855.74
2017-11-06T14:08:31.687Z,101859.75
2017-11-06T14:11:00.064Z,101860.63
2017-11-06T14:13:28.435Z,101866.10
2017-11-06T14:15:56.800Z,101872.41
2017-11-06T14:18:25.934Z,101868.88
2017-11-06T14:20:54.305Z,101878.69
2017-11-06T14:23:22.680Z,101881.46
2017-11-06T14:25:51.057Z,101878.98
2017-11-06T14:28:19.431Z,101880.56
2017-11-06T14:30:47.796Z,101884.47
2017-11-06T14:33:16.944Z,101885.65
2017-11-06T14:35:45.329Z,101889.44
2017-11-06T14:38:13.734Z,101883.79
2017-11-06T14:40:42.901Z,101893.84
2017-11-06T14:43:11.278Z,101892.68
2017-11-06T14:45:39.650Z,101899.13
2017-11-06T14:48:08.022Z,101901.13
2017-11-06T14:50:36.388Z,101905.72
2017-11-06T14:53:04.756Z,101910.81
2017-11-06T14:55:33.123Z,101914.56
2017-11-06T14:58:02.254Z,101921.00
2017-11-06T15:00:30.619Z,101924.27
2017-11-06T15:02:59.094Z,101927.55
2017-11-06T15:05:27.469Z,101926.77
2017-11-06T15:07:55.838Z,101926.43
2017-11-06T15:10:24.974Z,101932.90
2017-11-06T15:12:53.335Z,101936.20
2017-11-06T15:15:21.705Z,101940.88
2017-11-06T15:17:50.081Z,101949.56
2017-11-06T15:20:19.217Z,101951.11
2017-11-06T15:22:47.582Z,101956.66
2017-11-06T15:25:15.934Z,101959.58
2017-11-06T15:27:44.309Z,101962.88
2017-11-06T15:30:13.451Z,101977.34
2017-11-06T15:32:41.822Z,101976.66
2017-11-06T15:35:10.192Z,101975.87
2017-11-06T15:37:38.560Z,101980.53
2017-11-06T15:40:06.931Z,101979.75
2017-11-06T15:42:35.303Z,101978.58
2017-11-06T15:45:04.444Z,101975.57
2017-11-06T15:47:32.825Z,101988.34
2017-11-06T15:50:01.201Z,101992.58
2017-11-06T15:52:29.571Z,101994.98
2017-11-06T15:54:57.942Z,102003.70
2017-11-06T15:57:26.317Z,102003.34
2017-11-06T15:59:54.682Z,102009.31
2017-11-06T16:02:23.059Z,102004.95
2017-11-06T16:04:51.432Z,102009.56
2017-11-06T16:07:20.582Z,102010.64
2017-11-06T16:09:48.985Z,102009.46
2017-11-06T16:12:17.350Z,102021.23
2017-11-06T16:14:45.722Z,102022.69
2017-11-06T16:17:14.107Z,102029.52
2017-11-06T16:19:42.482Z,102037.72
2017-11-06T16:22:10.856Z,102027.98
2017-11-06T16:24:39.226Z,102027.64
2017-11-06T16:27:07.603Z,102033.56
2017-11-06T16:29:35.986Z,102042.59
2017-11-06T16:32:04.371Z,102050.29
2017-11-06T16:34:32.750Z,102055.30
2017-11-06T16:37:01.213Z,102066.59
2017-11-06T16:39:29.592Z,102060.89
2017-11-06T16:41:58.019Z,102065.02
2017-11-06T16:44:27.165Z,102069.12
2017-11-06T16:46:55.544Z,102065.69
2017-11-06T16:49:23.908Z,102071.57
2017-11-06T16:51:52.279Z,102072.57
2017-11-06T16:54:21.422Z,102074.91
2017-11-06T16:56:49.802Z,102071.83
2017-11-06T16:59:18.179Z,102068.77
2017-11-06T17:01:46.555Z,102075.11
2017-11-06T17:04:14.922Z,102077.87
2017-11-06T17:06:43.286Z,102077.92
2017-11-06T17:09:11.670Z,102074.42
2017-11-06T17:11:40.052Z,102079.89
2017-11-06T17:14:08.526Z,102080.43
2017-11-06T17:16:36.920Z,102089.02
2017-11-06T17:19:05.284Z,102095.30
2017-11-06T17:21:33.658Z,102100.31
2017-11-06T17:24:02.039Z,102098.57
2017-11-06T17:26:30.416Z,102099.50
2017-11-06T17:28:58.788Z,102096.41
2017-11-06T17:31:27.932Z,102100.97
2017-11-06T17:33:56.301Z,102101.50
2017-11-06T17:36:24.664Z,102101.52
2017-11-06T17:38:53.064Z,102104.25
2017-11-06T17:41:21.430Z,102107.02
2017-11-06T17:43:49.795Z,102111.09
2017-11-06T17:46:18.169Z,102115.63
2017-11-06T17:48:46.551Z,102121.90
2017-11-06T17:51:14.941Z,102132.69
2017-11-06T17:53:43.311Z,102135.41
2017-11-06T17:56:11.689Z,102136.80
2017-11-06T17:58:40.068Z,102141.34
2017-11-06T18:01:08.447Z,102137.39
2017-11-06T18:03:36.823Z,102148.12
2017-11-06T18:06:05.195Z,102142.82
2017-11-06T18:08:33.558Z,102144.17
2017-11-06T18:11:02.692Z,102142.02
2017-11-06T18:13:31.063Z,102145.16
2017-11-06T18:15:59.440Z,102145.22
2017-11-06T18:18:27.815Z,102152.41
2017-11-06T18:20:56.188Z,102151.56
2017-11-06T18:23:24.559Z,102156.53
2017-11-06T18:25:53.712Z,102157.53
2017-11-06T18:28:22.086Z,102162.55
2017-11-06T18:30:50.465Z,102169.27
2017-11-06T18:33:18.842Z,102165.75
2017-11-06T18:35:47.223Z,102163.16
2017-11-06T18:38:15.599Z,102170.41
2017-11-06T18:40:43.980Z,102167.31
2017-11-06T18:43:12.360Z,102171.36
2017-11-06T18:45:40.724Z,102167.38
2017-11-06T18:48:09.106Z,102170.04
2017-11-06T18:50:37.483Z,102173.25
2017-11-06T18:53:05.863Z,102173.78
2017-11-06T18:55:34.240Z,102171.67
2017-11-06T18:58:02.620Z,102180.19
2017-11-06T19:00:30.994Z,102178.94
2017-11-06T19:02:59.373Z,102183.02
2017-11-06T19:05:27.739Z,102183.47
2017-11-06T19:07:56.110Z,102188.41
2017-11-06T19:10:24.487Z,102186.63
2017-11-06T19:12:53.635Z,102186.19
2017-11-06T19:15:22.010Z,102185.35
2017-11-06T19:17:50.392Z,102184.48
2017-11-06T19:20:18.769Z,102187.70
2017-11-06T19:22:47.155Z,102193.09
2017-11-06T19:25:15.531Z,102192.64
2017-11-06T19:27:43.909Z,102195.78
2017-11-06T19:30:12.276Z,102202.03
2017-11-06T19:32:40.648Z,102202.03
2017-11-06T19:35:09.028Z,102204.28
2017-11-06T19:37:37.403Z,102201.59
2017-11-06T19:40:05.805Z,102208.81
2017-11-06T19:42:34.185Z,102213.70
2017-11-06T19:45:02.559Z,102205.72
2017-11-06T19:47:30.927Z,102205.32
2017-11-06T19:49:59.318Z,102214.72
2017-11-06T19:52:27.695Z,102220.58
2017-11-06T19:54:56.082Z,102215.22
2017-11-06T19:57:24.463Z,102227.34
2017-11-06T19:59:52.841Z,102232.30
2017-11-06T20:02:21.220Z,102233.66
2017-11-06T20:04:49.595Z,102243.05
2017-11-06T20:07:17.976Z,102246.19
2017-11-06T20:09:46.355Z,102249.73
2017-11-06T20:12:14.736Z,102253.77
2017-11-06T20:14:43.114Z,102256.91
2017-11-06T20:17:11.493Z,102256.94
2017-11-06T20:19:39.939Z,102266.34
2017-11-06T20:22:08.317Z,102264.59
2017-11-06T20:24:36.688Z,102265.49
2017-11-06T20:27:05.060Z,102265.98
2017-11-06T20:29:34.199Z,102260.63
2017-11-06T20:32:02.567Z,102267.86
2017-11-06T20:34:30.946Z,102274.15
2017-11-06T20:36:59.334Z,102272.41
2017-11-06T20:39:27.721Z,102281.80
2017-11-06T20:41:56.087Z,102277.80
2017-11-06T20:44:24.451Z,102282.67
2017-11-06T20:46:52.814Z,102280.89
2017-11-06T20:49:21.947Z,102290.76
2017-11-06T20:51:50.318Z,102280.52
2017-11-06T20:54:18.681Z,102285.02
2017-11-06T20:56:47.048Z,102286.44
2017-11-06T20:59:15.426Z,102281.14
2017-11-06T21:01:44.564Z,102278.50
2017-11-06T21:04:12.963Z,102274.97
2017-11-06T21:06:41.334Z,102279.47
2017-11-06T21:09:09.708Z,102286.18
2017-11-06T21:11:38.080Z,102291.09
2017-11-06T21:14:06.871Z,102290.17
2017-11-06T21:16:35.263Z,102287.03
2017-11-06T21:19:03.631Z,102288.86
2017-11-06T21:21:31.999Z,102292.44
2017-11-06T21:24:00.359Z,102288.38
2017-11-06T21:26:28.730Z,102287.05
2017-11-06T21:28:57.107Z,102293.77
2017-11-06T21:31:25.461Z,102300.50
2017-11-06T21:33:53.830Z,102297.81
2017-11-06T21:36:22.190Z,102296.00
2017-11-06T21:38:51.315Z,102300.02
2017-11-06T21:41:20.445Z,102303.59
2017-11-06T21:43:49.571Z,102302.72
2017-11-06T21:46:17.946Z,102309.84
2017-11-06T21:48:46.340Z,102303.96
2017-11-06T21:51:14.717Z,102309.73
2017-11-06T21:53:43.086Z,102307.45
2017-11-06T21:56:11.479Z,102310.06
2017-11-06T21:58:39.850Z,102306.00
2017-11-06T22:01:08.216Z,102309.09
2017-11-06T22:03:36.585Z,102302.39
2017-11-06T22:06:04.951Z,102304.31
2017-11-06T22:08:33.323Z,102306.39
2017-11-06T22:11:02.464Z,102315.70
2017-11-06T22:13:30.832Z,102316.52
2017-11-06T22:15:59.204Z,102317.33
2017-11-06T22:18:27.579Z,102310.58
2017-11-06T22:20:55.942Z,102317.33
2017-11-06T22:23:25.235Z,102319.11
2017-11-06T22:25:54.375Z,102316.47
2017-11-06T22:28:22.750Z,102319.56
2017-11-06T22:30:51.124Z,102314.18
2017-11-06T22:33:19.499Z,102314.60
2017-11-06T22:35:47.890Z,102311.67
2017-11-06T22:38:16.278Z,102314.11
2017-11-06T22:40:44.659Z,102314.98
2017-11-06T22:43:13.035Z,102315.86
2017-11-06T22:45:41.427Z,102317.23
2017-11-06T22:48:09.794Z,102323.11
2017-11-06T22:50:38.175Z,102322.22
2017-11-06T22:53:06.561Z,102325.78
2017-11-06T22:55:34.933Z,102328.05
2017-11-06T22:58:03.311Z,102323.57
2017-11-06T23:00:31.698Z,102325.39
2017-11-06T23:03:00.062Z,102320.48
2017-11-06T23:05:28.430Z,102327.61
2017-11-06T23:07:56.838Z,102321.83
2017-11-06T23:10:25.207Z,102317.33
2017-11-06T23:12:53.577Z,102316.84
2017-11-06T23:15:21.951Z,102317.30
2017-11-06T23:17:50.322Z,102318.63
2017-11-06T23:20:18.711Z,102317.28
2017-11-06T23:22:47.090Z,102311.41
2017-11-06T23:25:15.466Z,102317.25
2017-11-06T23:27:43.842Z,102314.59
2017-11-06T23:30:12.216Z,102315.04
2017-11-06T23:32:41.670Z,102307.91
2017-11-06T23:35:10.045Z,102311.09
2017-11-06T23:37:38.414Z,102315.13
2017-11-06T23:40:06.782Z,102315.11
2017-11-06T23:42:35.151Z,102321.35
2017-11-06T23:45:03.524Z,102318.67
2017-11-06T23:47:31.895Z,102313.30
2017-11-06T23:50:00.268Z,102316.86
2017-11-06T23:52:28.654Z,102310.58
2017-11-06T23:54:57.032Z,102311.50
2017-11-06T23:57:25.395Z,102315.95
2017-11-06T23:59:53.766Z,102313.69
